Time;durP1;ratioP1;P1;durP2;ratioP2;P2;SDS_P1;SDS_P2;PMS_P1;PMS_P2;Temp;Humidity;BMP_temperature;BMP_pressure;BME280_temperature;BME280_humidity;BME280_pressure;Samples;Min_cycle;Max_cycle;Signal;HPM_P1;HPM_P2
2023/10/12 00:00:55;;;;;;;7.27;3.97;;;12.50;23.30;;;;;;5000050;28;46530;-81
2023/10/12 00:03:21;;;;;;;14.47;4.20;;;12.50;23.30;;;;;;4998391;28;46483;-80
2023/10/12 00:05:46;;;;;;;12.93;4.20;;;12.60;23.10;;;;;;4999902;28;47287;-82
2023/10/12 00:08:30;;;;;;;9.23;3.93;;;12.70;22.90;;;;;;4999635;28;46417;-81
2023/10/12 00:10:56;;;;;;;11.77;3.67;;;12.80;23.70;;;;;;4997092;28;46543;-82
2023/10/12 00:13:28;;;;;;;10.73;3.87;;;12.80;22.70;;;;;;4999490;28;46476;-82
2023/10/12 00:15:55;;;;;;;8.80;3.87;;;12.90;22.60;;;;;;4998679;28;46462;-84
2023/10/12 00:18:22;;;;;;;14.20;3.93;;;13.10;22.70;;;;;;4999972;28;47083;-81
2023/10/12 00:20:54;;;;;;;10.23;3.60;;;13.00;22.60;;;;;;4998344;28;46578;-82
2023/10/12 00:23:19;;;;;;;10.37;4.33;;;13.10;22.70;;;;;;5000989;28;46548;-82
2023/10/12 00:25:47;;;;;;;8.60;4.00;;;13.10;22.70;;;;;;5001924;28;46754;-84
2023/10/12 00:28:14;;;;;;;9.23;3.70;;;13.10;22.80;;;;;;5000806;28;46459;-82
2023/10/12 00:30:41;;;;;;;9.30;3.90;;;13.10;23.00;;;;;;5002935;28;46439;-85
2023/10/12 00:33:08;;;;;;;8.03;3.63;;;12.90;23.10;;;;;;4999797;28;46737;-81
2023/10/12 00:35:37;;;;;;;13.00;4.80;;;12.90;23.20;;;;;;4997419;28;46496;-81
2023/10/12 00:38:28;;;;;;;9.23;3.80;;;12.80;23.60;;;;;;4998208;28;46602;-83
2023/10/12 00:41:03;;;;;;;12.53;4.30;;;12.80;23.60;;;;;;4996662;28;46640;-82
2023/10/12 00:43:35;;;;;;;11.87;4.00;;;12.90;23.70;;;;;;4997302;28;46526;-81
2023/10/12 00:47:08;;;;;;;12.50;4.67;;;12.80;23.80;;;;;;4998561;28;47619;-82
2023/10/12 00:49:17;;;;;;;7.90;3.60;;;12.80;23.90;;;;;;4986917;28;46538;-81
2023/10/12 00:51:49;;;;;;;19.53;4.67;;;13.00;24.00;;;;;;4995314;28;46435;-81
2023/10/12 00:54:25;;;;;;;10.23;4.70;;;13.00;24.00;;;;;;4998912;28;46468;-82
2023/10/12 00:57:02;;;;;;;12.03;4.23;;;13.00;24.20;;;;;;4998483;28;46804;-81
2023/10/12 00:59:32;;;;;;;14.87;5.30;;;12.80;24.60;;;;;;4997478;28;46476;-80
2023/10/12 01:02:02;;;;;;;13.23;4.40;;;12.70;25.00;;;;;;4999143;28;49360;-81
2023/10/12 01:04:30;;;;;;;16.40;5.10;;;12.70;25.30;;;;;;5000648;28;45946;-82
2023/10/12 01:06:59;;;;;;;11.20;4.80;;;12.60;25.50;;;;;;4999038;28;47205;-83
2023/10/12 01:09:29;;;;;;;10.00;4.90;;;12.60;25.70;;;;;;4999058;28;46612;-81
2023/10/12 01:11:58;;;;;;;13.23;4.60;;;12.60;26.00;;;;;;4999871;28;46565;-83
2023/10/12 01:14:26;;;;;;;10.10;5.00;;;12.60;26.00;;;;;;5000354;28;46504;-81
2023/10/12 01:16:59;;;;;;;9.57;4.57;;;12.80;26.10;;;;;;4999635;28;47115;-81
2023/10/12 01:19:30;;;;;;;13.50;4.63;;;12.70;26.30;;;;;;4998854;28;46856;-82
2023/10/12 01:22:12;;;;;;;13.50;4.30;;;12.70;26.30;;;;;;5001660;28;46594;-82
2023/10/12 01:24:57;;;;;;;14.77;4.70;;;12.70;26.60;;;;;;4993340;28;46445;-82
2023/10/12 01:27:26;;;;;;;11.13;4.70;;;12.60;26.80;;;;;;5001542;28;46770;-80
2023/10/12 01:29:53;;;;;;;12.20;4.37;;;12.50;27.00;;;;;;5000179;28;46554;-81
2023/10/12 01:35:25;;;;;;;11.40;4.93;;;12.50;27.20;;;;;;4999990;28;46894;-82
2023/10/12 01:37:48;;;;;;;13.57;4.70;;;12.50;27.10;;;;;;4996674;28;46835;-82
2023/10/12 01:40:18;;;;;;;12.50;4.60;;;12.50;27.20;;;;;;5000623;28;46649;-83
2023/10/12 01:48:05;;;;;;;9.03;4.20;;;12.60;27.40;;;;;;4994569;28;46742;-80
2023/10/12 01:50:33;;;;;;;12.83;4.63;;;12.70;27.50;;;;;;4998583;28;47126;-82
2023/10/12 01:53:07;;;;;;;9.63;4.27;;;12.80;27.40;;;;;;5002049;28;46550;-83
2023/10/12 01:55:32;;;;;;;16.00;4.70;;;13.00;27.30;;;;;;5001395;28;46507;-82
2023/10/12 01:57:59;;;;;;;14.40;5.60;;;13.10;27.30;;;;;;5003456;28;48388;-81
2023/10/12 02:00:41;;;;;;;12.27;5.00;;;13.20;27.40;;;;;;4999750;28;46850;-80
2023/10/12 02:03:31;;;;;;;11.10;4.77;;;13.10;27.40;;;;;;4997077;28;46755;-83
2023/10/12 02:06:02;;;;;;;14.00;5.20;;;13.30;27.60;;;;;;4999588;28;47020;-81
2023/10/12 02:08:39;;;;;;;10.63;5.03;;;13.30;27.60;;;;;;5001175;28;46431;-83
2023/10/12 02:11:26;;;;;;;12.50;5.20;;;13.40;27.60;;;;;;5002691;28;46763;-83
2023/10/12 02:13:55;;;;;;;17.70;4.37;;;13.40;27.80;;;;;;5002006;28;46692;-82
2023/10/12 02:16:37;;;;;;;19.33;4.63;;;13.60;27.90;;;;;;5000384;28;46450;-85
2023/10/12 02:19:19;;;;;;;18.77;4.60;;;13.70;28.00;;;;;;5002360;28;47297;-81
2023/10/12 02:21:46;;;;;;;16.07;5.40;;;13.60;27.80;;;;;;5003557;28;46621;-83
2023/10/12 02:24:13;;;;;;;11.20;4.30;;;13.60;27.70;;;;;;5007326;28;46743;-84
2023/10/12 02:26:44;;;;;;;11.50;4.67;;;13.60;27.80;;;;;;5000824;28;46614;-79
2023/10/12 02:34:20;;;;;;;12.00;4.17;;;13.80;28.10;;;;;;4998762;28;46971;-79
2023/10/12 02:39:37;;;;;;;8.83;4.93;;;13.70;28.50;;;;;;5000853;28;46993;-82
2023/10/12 02:42:38;;;;;;;17.33;5.90;;;13.60;28.60;;;;;;4997454;28;46476;-79
2023/10/12 02:47:24;;;;;;;16.40;4.60;;;13.50;28.60;;;;;;4997052;28;46534;-79
2023/10/12 02:49:59;;;;;;;10.20;4.50;;;13.30;28.40;;;;;;4996932;28;48343;-80
2023/10/12 02:52:25;;;;;;;11.30;5.30;;;13.30;28.40;;;;;;4998276;28;46628;-82
2023/10/12 02:54:51;;;;;;;13.27;4.67;;;13.20;28.40;;;;;;4995604;28;46406;-80
2023/10/12 02:57:25;;;;;;;13.73;4.60;;;13.10;28.50;;;;;;4996789;28;46593;-81
2023/10/12 03:00:03;;;;;;;8.93;4.87;;;13.00;28.70;;;;;;4999124;28;47340;-82
2023/10/12 03:02:34;;;;;;;13.10;4.37;;;13.10;29.00;;;;;;5000529;28;46578;-81
2023/10/12 03:05:04;;;;;;;15.17;5.00;;;12.90;28.90;;;;;;4997421;28;46528;-79
2023/10/12 03:07:30;;;;;;;10.03;4.97;;;12.90;29.10;;;;;;4998388;28;46538;-79
2023/10/12 03:09:59;;;;;;;10.27;5.33;;;12.80;29.00;;;;;;4998272;28;47474;-79
2023/10/12 03:12:25;;;;;;;11.63;4.40;;;12.90;29.10;;;;;;4999584;28;46816;-82
2023/10/12 03:14:51;;;;;;;15.90;4.90;;;12.70;29.00;;;;;;4997539;28;46851;-83
2023/10/12 03:17:20;;;;;;;19.43;4.67;;;12.70;29.10;;;;;;4999212;28;45999;-80
2023/10/12 03:19:55;;;;;;;14.33;5.40;;;12.60;29.10;;;;;;5000167;28;46894;-81
2023/10/12 03:22:44;;;;;;;16.10;5.20;;;12.60;29.10;;;;;;4994268;28;46491;-81
2023/10/12 03:27:54;;;;;;;8.43;3.77;;;12.60;28.90;;;;;;4994115;28;46392;-80
2023/10/12 03:30:34;;;;;;;15.60;4.57;;;12.70;29.10;;;;;;4998409;28;46919;-81
2023/10/12 03:33:01;;;;;;;13.53;4.30;;;12.70;29.00;;;;;;4998135;28;46475;-81
2023/10/12 03:35:33;;;;;;;9.77;5.00;;;12.70;29.00;;;;;;4996462;28;46271;-81
2023/10/12 03:38:12;;;;;;;17.23;5.07;;;12.70;28.90;;;;;;4997006;28;46889;-81
2023/10/12 03:40:50;;;;;;;15.13;4.77;;;12.70;28.90;;;;;;5000225;28;46658;-82
2023/10/12 03:43:26;;;;;;;18.83;4.53;;;12.70;28.80;;;;;;4998660;28;46662;-81
2023/10/12 03:48:47;;;;;;;9.90;4.63;;;12.50;28.80;;;;;;4997833;28;46301;-82
2023/10/12 03:53:56;;;;;;;9.17;3.90;;;12.30;28.90;;;;;;4994676;28;46412;-82
2023/10/12 03:56:24;;;;;;;13.03;4.40;;;12.30;28.90;;;;;;4996231;28;47681;-81
2023/10/12 03:58:58;;;;;;;14.13;5.60;;;12.30;28.90;;;;;;4997654;28;46453;-81
2023/10/12 04:01:31;;;;;;;15.40;5.60;;;12.30;29.70;;;;;;4998375;28;47159;-81
2023/10/12 04:04:08;;;;;;;12.43;4.40;;;12.30;28.80;;;;;;4996924;28;46373;-82
2023/10/12 04:09:31;;;;;;;15.93;4.40;;;12.40;28.80;;;;;;5000628;28;46475;-80
2023/10/12 04:12:18;;;;;;;11.63;4.50;;;12.40;28.70;;;;;;4997516;28;48422;-83
2023/10/12 04:14:46;;;;;;;11.57;5.10;;;12.30;28.70;;;;;;5012403;28;46037;-80
2023/10/12 04:17:59;;;;;;;13.70;4.10;;;12.30;28.70;;;;;;5003953;28;47061;-80
2023/10/12 04:23:04;;;;;;;15.57;4.80;;;12.30;28.60;;;;;;4993020;28;46924;-81
2023/10/12 04:25:46;;;;;;;9.07;4.20;;;12.40;28.70;;;;;;4998820;28;46590;-82
2023/10/12 04:28:17;;;;;;;13.90;4.40;;;12.30;28.40;;;;;;4996972;28;46851;-83
2023/10/12 04:33:17;;;;;;;16.60;4.93;;;12.50;27.90;;;;;;4999320;28;46741;-79
2023/10/12 04:43:39;;;;;;;10.73;5.30;;;12.70;28.00;;;;;;5000114;28;47194;-82
2023/10/12 04:48:41;;;;;;;11.43;5.57;;;12.70;28.00;;;;;;5000979;28;46471;-80
2023/10/12 04:51:07;;;;;;;8.77;4.50;;;12.80;29.00;;;;;;5000205;28;45962;-82
2023/10/12 04:56:19;;;;;;;14.53;4.97;;;12.80;28.10;;;;;;4997489;28;46889;-79
2023/10/12 04:58:56;;;;;;;16.13;4.53;;;12.80;28.10;;;;;;5000978;28;46836;-82
2023/10/12 05:01:29;;;;;;;17.10;4.27;;;12.70;28.00;;;;;;5001115;28;46986;-81
2023/10/12 05:04:08;;;;;;;17.40;4.20;;;12.70;28.00;;;;;;4997966;28;49051;-83
2023/10/12 05:06:46;;;;;;;9.60;4.30;;;12.70;28.00;;;;;;5002820;28;46784;-83
2023/10/12 05:09:12;;;;;;;11.63;5.87;;;12.70;28.10;;;;;;5002208;28;46872;-81
2023/10/12 05:11:38;;;;;;;11.37;4.63;;;12.70;28.00;;;;;;4999267;28;46483;-82
2023/10/12 05:14:11;;;;;;;13.77;4.80;;;12.70;28.00;;;;;;4999297;28;47259;-80
2023/10/12 05:16:42;;;;;;;11.67;4.27;;;12.60;27.90;;;;;;5000624;28;46497;-81
2023/10/12 05:19:11;;;;;;;14.10;4.80;;;12.60;27.90;;;;;;4998538;28;46503;-81
2023/10/12 05:21:37;;;;;;;12.00;5.07;;;12.70;28.00;;;;;;4999105;28;46425;-81
2023/10/12 05:24:03;;;;;;;8.00;4.30;;;12.80;28.10;;;;;;4998726;28;48264;-81
2023/10/12 05:26:30;;;;;;;9.80;4.73;;;12.70;28.00;;;;;;4998691;28;46876;-81
2023/10/12 05:29:17;;;;;;;17.27;4.50;;;12.80;28.10;;;;;;4999138;28;46850;-81
2023/10/12 05:31:48;;;;;;;13.00;4.67;;;12.80;28.10;;;;;;5000548;28;46458;-81
2023/10/12 05:34:32;;;;;;;12.83;4.57;;;12.80;28.10;;;;;;5000424;28;47427;-81
2023/10/12 05:37:08;;;;;;;10.87;4.23;;;12.70;28.00;;;;;;5009016;28;46462;-82
2023/10/12 05:39:42;;;;;;;12.00;5.30;;;12.70;28.00;;;;;;5000578;28;46604;-81
2023/10/12 05:42:08;;;;;;;19.27;5.30;;;12.70;28.00;;;;;;4995649;28;46587;-82
2023/10/12 05:44:34;;;;;;;20.77;5.23;;;12.70;28.00;;;;;;5001972;28;46518;-81
2023/10/12 05:47:00;;;;;;;10.23;4.60;;;12.70;28.00;;;;;;5000758;28;46495;-82
2023/10/12 05:49:25;;;;;;;11.50;5.07;;;12.70;28.00;;;;;;5001263;28;46426;-82
2023/10/12 05:51:51;;;;;;;9.80;4.87;;;12.70;28.00;;;;;;5002615;28;46635;-83
2023/10/12 05:54:20;;;;;;;9.17;4.30;;;12.90;28.10;;;;;;5003626;28;48323;-83
2023/10/12 05:56:49;;;;;;;11.40;4.43;;;12.70;28.10;;;;;;5002668;28;46949;-85
2023/10/12 05:59:14;;;;;;;9.23;4.33;;;12.80;28.10;;;;;;5001514;28;46538;-83
2023/10/12 06:01:46;;;;;;;8.80;4.23;;;13.00;28.20;;;;;;5003829;28;46738;-85
2023/10/12 06:04:14;;;;;;;9.10;4.63;;;12.90;28.10;;;;;;5003988;28;46762;-82
2023/10/12 06:06:44;;;;;;;12.73;4.83;;;13.00;28.20;;;;;;4999662;28;47100;-80
2023/10/12 06:09:17;;;;;;;12.57;5.30;;;13.10;28.00;;;;;;5000702;28;46355;-81
2023/10/12 06:11:44;;;;;;;16.73;4.87;;;13.30;28.00;;;;;;5003033;28;46459;-81
2023/10/12 06:14:10;;;;;;;11.43;4.43;;;13.30;27.80;;;;;;4993296;28;47225;-81
2023/10/12 06:16:45;;;;;;;12.40;5.03;;;13.20;27.60;;;;;;4999884;28;46387;-81
2023/10/12 06:19:57;;;;;;;12.40;4.53;;;13.40;27.70;;;;;;4999261;28;45883;-80
2023/10/12 06:21:59;;;;;;;10.53;4.43;;;13.30;27.70;;;;;;4995724;28;46635;-81
2023/10/12 06:24:33;;;;;;;15.10;4.60;;;13.40;27.60;;;;;;5000869;28;46137;-81
2023/10/12 06:27:26;;;;;;;16.93;4.67;;;13.40;27.70;;;;;;4999349;28;46835;-80
2023/10/12 06:29:52;;;;;;;14.33;4.77;;;13.40;27.50;;;;;;5000207;28;46352;-77
2023/10/12 06:32:19;;;;;;;14.53;4.73;;;13.50;27.40;;;;;;4997825;28;46766;-79
2023/10/12 06:35:02;;;;;;;10.10;4.47;;;13.70;27.30;;;;;;4998269;28;47170;-79
2023/10/12 06:37:49;;;;;;;14.40;5.07;;;13.70;27.10;;;;;;4999189;28;46419;-80
2023/10/12 06:45:55;;;;;;;15.80;4.30;;;14.20;26.20;;;;;;4993754;28;46465;-80
2023/10/12 06:50:53;;;;;;;13.43;3.80;;;14.60;25.70;;;;;;4996918;28;46400;-78
2023/10/12 06:53:24;;;;;;;9.90;3.80;;;14.90;25.60;;;;;;4998104;28;46782;-74
2023/10/12 06:55:58;;;;;;;12.83;4.00;;;14.90;25.20;;;;;;4996276;28;47756;-79
2023/10/12 06:58:36;;;;;;;9.93;3.90;;;15.10;25.00;;;;;;4996131;28;46521;-78
2023/10/12 07:03:49;;;;;;;10.20;3.60;;;15.50;24.40;;;;;;4998809;28;46696;-80
2023/10/12 07:06:16;;;;;;;8.93;4.30;;;16.00;24.00;;;;;;4995095;28;46801;-77
2023/10/12 07:08:46;;;;;;;10.23;4.23;;;16.20;23.30;;;;;;4993285;28;46443;-78
2023/10/12 07:11:17;;;;;;;15.70;4.50;;;16.60;22.60;;;;;;4995970;28;46512;-81
2023/10/12 07:13:45;;;;;;;10.33;3.83;;;16.90;22.00;;;;;;4995030;28;46771;-80
2023/10/12 07:16:16;;;;;;;10.77;3.90;;;17.20;21.40;;;;;;4991484;28;46911;-80
2023/10/12 07:18:43;;;;;;;11.57;3.27;;;17.50;20.70;;;;;;4998935;28;46743;-79
2023/10/12 07:21:21;;;;;;;13.10;4.27;;;17.90;21.00;;;;;;5000866;28;46593;-78
2023/10/12 07:23:52;;;;;;;8.90;3.77;;;18.00;20.30;;;;;;5002142;28;46435;-79
2023/10/12 07:26:18;;;;;;;12.60;4.37;;;18.20;20.90;;;;;;4995881;28;46913;-79
2023/10/12 07:28:49;;;;;;;8.90;3.47;;;18.40;19.70;;;;;;4996919;28;46424;-79
2023/10/12 07:42:02;;;;;;;10.13;3.60;;;19.00;18.40;;;;;;4932724;28;1138111;-76
2023/10/12 07:44:42;;;;;;;17.93;4.10;;;19.00;18.30;;;;;;4997844;28;46678;-79
2023/10/12 07:47:19;;;;;;;13.30;3.90;;;19.00;18.30;;;;;;4997618;28;46530;-81
2023/10/12 07:49:50;;;;;;;13.73;3.40;;;19.20;18.20;;;;;;4989733;28;46421;-79
2023/10/12 07:57:18;;;;;;;8.10;3.53;;;19.80;16.80;;;;;;4997267;28;46777;-80
2023/10/12 07:59:57;;;;;;;11.57;3.67;;;20.00;16.00;;;;;;4989864;28;46591;-77
2023/10/12 08:10:48;;;;;;;11.23;3.40;;;20.90;14.00;;;;;;4997899;28;46825;-80
2023/10/12 08:21:26;;;;;;;7.13;3.00;;;21.40;12.30;;;;;;4996574;28;46419;-78
2023/10/12 08:31:43;;;;;;;12.40;3.37;;;21.70;11.60;;;;;;5003651;28;46538;-77
2023/10/12 08:37:17;;;;;;;13.50;3.70;;;22.10;11.00;;;;;;5006318;28;46685;-78
2023/10/12 08:39:49;;;;;;;13.40;3.60;;;22.20;10.70;;;;;;5003046;28;46543;-78
2023/10/12 08:44:53;;;;;;;14.10;4.50;;;22.70;9.80;;;;;;4995456;28;46519;-78
2023/10/12 08:47:31;;;;;;;11.97;3.40;;;23.00;9.10;;;;;;4993894;28;46898;-78
2023/10/12 08:52:28;;;;;;;7.87;3.03;;;23.30;8.30;;;;;;4995965;28;46688;-78
2023/10/12 08:54:57;;;;;;;11.40;4.03;;;23.70;7.50;;;;;;4994930;28;46083;-79
2023/10/12 08:57:55;;;;;;;11.50;3.40;;;23.80;6.80;;;;;;4994140;28;46615;-79
2023/10/12 09:00:42;;;;;;;12.13;3.53;;;23.70;6.50;;;;;;4986116;28;49525;-77
2023/10/12 09:05:54;;;;;;;13.20;3.80;;;23.50;6.70;;;;;;4993651;28;46908;-83
2023/10/12 09:11:02;;;;;;;12.80;3.73;;;23.60;6.30;;;;;;4997251;28;46713;-83
2023/10/12 09:13:36;;;;;;;7.13;3.50;;;23.60;6.20;;;;;;4994604;28;46638;-83
2023/10/12 09:16:09;;;;;;;15.60;4.17;;;23.70;5.90;;;;;;4996365;28;46238;-83
2023/10/12 09:18:46;;;;;;;12.77;3.13;;;23.90;5.40;;;;;;5002009;28;46586;-83
2023/10/12 09:24:08;;;;;;;13.90;4.27;;;24.60;3.20;;;;;;5009471;28;45787;-85
2023/10/12 09:26:34;;;;;;;22.30;3.80;;;24.80;3.30;;;;;;5009305;28;46513;-81
2023/10/12 09:36:53;;;;;;;10.67;3.40;;;24.60;2.60;;;;;;5003315;28;46570;-82
2023/10/12 09:39:25;;;;;;;10.47;3.73;;;24.50;2.40;;;;;;5003744;28;46437;-83
2023/10/12 09:42:09;;;;;;;14.23;3.50;;;24.50;3.10;;;;;;5007287;28;48242;-85
2023/10/12 09:44:39;;;;;;;18.73;4.20;;;24.60;3.50;;;;;;5006976;28;46543;-81
2023/10/12 09:47:15;;;;;;;7.90;3.70;;;24.70;2.00;;;;;;5002385;28;46790;-82
2023/10/12 09:49:47;;;;;;;17.07;4.17;;;24.80;1.80;;;;;;5001144;28;46764;-80
2023/10/12 09:52:15;;;;;;;11.10;4.27;;;24.80;1.30;;;;;;4999068;28;47167;-81
2023/10/12 09:54:49;;;;;;;7.17;3.33;;;24.90;1.10;;;;;;4998570;28;46602;-81
2023/10/12 10:00:28;;;;;;;14.40;3.93;;;25.20;1.00;;;;;;4995910;28;46460;-82
2023/10/12 10:02:59;;;;;;;15.90;4.00;;;25.20;1.00;;;;;;4998519;28;47040;-81
2023/10/12 10:05:39;;;;;;;13.23;4.17;;;25.20;1.00;;;;;;4997979;28;46489;-81
2023/10/12 10:08:06;;;;;;;11.37;4.07;;;25.20;1.00;;;;;;4998494;28;45866;-82
2023/10/12 10:10:34;;;;;;;15.43;3.97;;;25.10;1.00;;;;;;5000155;28;46780;-81
2023/10/12 10:13:29;;;;;;;19.97;3.97;;;24.90;1.00;;;;;;4998538;28;46331;-83
2023/10/12 10:15:55;;;;;;;10.93;4.10;;;24.70;1.00;;;;;;4997194;28;46842;-80
2023/10/12 10:18:25;;;;;;;11.67;4.37;;;24.60;1.00;;;;;;4998776;28;46454;-83
2023/10/12 10:20:58;;;;;;;14.70;4.00;;;24.70;1.00;;;;;;4998492;28;46471;-85
2023/10/12 10:23:24;;;;;;;12.30;4.70;;;24.60;1.00;;;;;;4997244;28;46555;-85
2023/10/12 10:26:07;;;;;;;11.33;4.17;;;24.40;1.00;;;;;;5005721;28;47101;-85
2023/10/12 10:28:38;;;;;;;11.90;4.30;;;24.30;1.00;;;;;;4995711;28;47091;-80
2023/10/12 10:31:11;;;;;;;31.50;4.47;;;24.40;1.00;;;;;;4998852;28;46541;-81
2023/10/12 10:33:37;;;;;;;11.33;3.97;;;24.50;1.00;;;;;;4995357;28;48602;-81
2023/10/12 10:36:13;;;;;;;10.40;4.23;;;24.50;1.00;;;;;;4997862;28;46873;-82
2023/10/12 10:39:03;;;;;;;16.23;4.00;;;24.50;1.00;;;;;;4997202;28;46797;-80
2023/10/12 10:44:16;;;;;;;8.63;4.23;;;24.50;1.00;;;;;;4997598;28;46965;-84
2023/10/12 10:46:54;;;;;;;12.57;4.27;;;24.40;1.00;;;;;;5000075;28;46429;-83
2023/10/12 10:49:20;;;;;;;8.53;3.73;;;24.50;1.00;;;;;;4995508;28;46692;-81
2023/10/12 10:51:48;;;;;;;12.40;4.20;;;24.40;1.00;;;;;;4994341;28;49977;-85
2023/10/12 10:54:20;;;;;;;22.00;8.33;;;24.40;1.00;;;;;;4996386;28;47051;-82
2023/10/12 10:56:47;;;;;;;18.07;6.57;;;24.30;1.00;;;;;;5001924;28;46428;-84
2023/10/12 10:59:13;;;;;;;62.60;20.87;;;24.30;1.00;;;;;;5001868;28;46701;-82
2023/10/12 11:01:52;;;;;;;18.13;6.40;;;24.20;1.00;;;;;;4997489;28;46176;-84
2023/10/12 11:07:03;;;;;;;10.20;4.47;;;23.90;1.00;;;;;;4998236;28;46668;-83
2023/10/12 11:09:31;;;;;;;11.20;3.97;;;23.80;1.00;;;;;;4998033;28;46495;-82
2023/10/12 11:12:00;;;;;;;26.30;5.23;;;24.10;1.00;;;;;;5001760;28;46641;-83
2023/10/12 11:14:31;;;;;;;14.27;4.80;;;24.40;1.00;;;;;;5001565;28;48294;-83
2023/10/12 11:16:58;;;;;;;12.93;4.00;;;24.60;1.00;;;;;;5000365;28;46517;-85
2023/10/12 11:19:24;;;;;;;12.90;4.00;;;24.80;1.00;;;;;;5015517;28;46369;-81
2023/10/12 11:21:52;;;;;;;17.00;4.50;;;24.90;1.00;;;;;;4997628;28;46591;-82
2023/10/12 11:24:19;;;;;;;13.00;3.30;;;24.90;1.00;;;;;;4998198;28;47281;-81
2023/10/12 11:26:54;;;;;;;17.73;4.90;;;24.90;1.00;;;;;;5001241;28;45946;-84
2023/10/12 11:29:22;;;;;;;10.47;3.87;;;24.70;1.00;;;;;;5000944;28;46509;-82
2023/10/12 11:32:11;;;;;;;10.57;4.40;;;24.70;1.00;;;;;;5003105;28;46875;-82
2023/10/12 11:34:45;;;;;;;11.13;4.37;;;24.60;1.00;;;;;;4996723;28;46956;-80
2023/10/12 11:37:14;;;;;;;18.67;4.27;;;24.30;1.00;;;;;;4996816;28;46696;-79
2023/10/12 11:39:44;;;;;;;9.00;4.40;;;24.20;1.00;;;;;;4998901;28;46747;-83
2023/10/12 11:42:12;;;;;;;8.47;3.43;;;24.20;1.00;;;;;;4997246;28;46473;-81
2023/10/12 11:44:44;;;;;;;8.27;3.80;;;24.20;1.00;;;;;;4999485;28;46509;-85
2023/10/12 11:47:25;;;;;;;12.87;3.30;;;24.10;1.00;;;;;;4998190;28;46957;-83
2023/10/12 11:49:56;;;;;;;9.23;3.77;;;24.20;1.00;;;;;;5003594;28;46351;-84
2023/10/12 11:52:30;;;;;;;7.63;3.47;;;24.00;1.00;;;;;;5003791;28;46386;-82
2023/10/12 11:55:18;;;;;;;9.23;4.60;;;24.00;1.00;;;;;;4999318;28;47687;-84
2023/10/12 11:57:49;;;;;;;12.70;4.37;;;24.10;1.00;;;;;;4999964;28;46509;-81
2023/10/12 12:00:21;;;;;;;12.80;4.20;;;24.20;1.00;;;;;;5001164;28;46593;-84
2023/10/12 12:02:53;;;;;;;10.90;3.97;;;24.20;1.00;;;;;;4999677;28;46633;-82
2023/10/12 12:05:22;;;;;;;18.00;4.07;;;24.20;1.00;;;;;;4998102;28;46303;-84
2023/10/12 12:07:51;;;;;;;8.73;3.73;;;24.20;1.00;;;;;;5001780;28;46541;-84
2023/10/12 12:10:20;;;;;;;10.57;4.30;;;24.20;1.00;;;;;;4998916;28;46426;-85
2023/10/12 12:12:47;;;;;;;13.83;4.33;;;;;;;;;;5003990;28;47063;-88
2023/10/12 12:15:15;;;;;;;49.57;13.00;;;24.10;1.00;;;;;;4994558;28;48269;-82
2023/10/12 12:17:41;;;;;;;18.60;5.63;;;;;;;;;;4997183;28;46890;-84
2023/10/12 12:20:07;;;;;;;36.03;8.50;;;23.50;1.00;;;;;;4997019;28;46520;-84
2023/10/12 12:22:42;;;;;;;49.17;15.23;;;;;;;;;;4984190;28;46499;-83
2023/10/12 12:25:17;;;;;;;27.97;8.00;;;;;;;;;;4995985;28;48948;-85
2023/10/12 12:27:48;;;;;;;12.00;4.90;;;;;;;;;;4986425;28;46767;-81
2023/10/12 12:30:27;;;;;;;16.13;5.53;;;23.30;1.00;;;;;;4994801;28;46498;-80
2023/10/12 12:33:00;;;;;;;16.90;4.93;;;;;;;;;;4995980;28;46660;-82
2023/10/12 12:35:32;;;;;;;28.00;4.80;;;23.10;1.00;;;;;;4995211;28;46509;-80
2023/10/12 12:38:05;;;;;;;9.80;3.40;;;23.10;1.00;;;;;;4995280;28;46843;-82
2023/10/12 12:40:44;;;;;;;19.90;4.60;;;23.10;1.00;;;;;;4996433;28;46444;-82
2023/10/12 12:43:10;;;;;;;12.53;3.20;;;23.10;1.50;;;;;;4994619;28;47098;-81
2023/10/12 12:45:36;;;;;;;9.73;3.60;;;;;;;;;;4992552;28;47352;-83
2023/10/12 12:48:04;;;;;;;8.33;3.60;;;23.90;4.30;;;;;;4995375;28;46641;-82
2023/10/12 12:50:30;;;;;;;12.07;3.50;;;;;;;;;;4994022;28;46682;-82
2023/10/12 12:52:57;;;;;;;18.10;3.50;;;;;;;;;;4997828;28;46847;-85
2023/10/12 12:55:28;;;;;;;10.20;3.17;;;;;;;;;;4999003;28;46969;-83
2023/10/12 12:57:58;;;;;;;12.77;3.23;;;24.40;1.00;;;;;;4998738;28;46566;-81
2023/10/12 13:00:25;;;;;;;12.13;3.07;;;24.30;1.00;;;;;;5000700;28;46442;-82
2023/10/12 13:02:50;;;;;;;15.33;3.97;;;24.50;1.00;;;;;;4998803;28;46519;-83
2023/10/12 13:05:16;;;;;;;15.77;3.70;;;24.50;1.00;;;;;;4998163;28;48684;-84
2023/10/12 13:07:45;;;;;;;10.60;3.23;;;24.60;1.00;;;;;;5000336;28;46589;-82
2023/10/12 13:10:11;;;;;;;8.63;3.40;;;;;;;;;;5003193;28;45919;-80
2023/10/12 13:13:06;;;;;;;12.60;3.53;;;24.70;1.00;;;;;;5014638;28;46191;-83
2023/10/12 13:15:41;;;;;;;17.93;3.40;;;24.90;1.00;;;;;;4991502;28;46709;-80
2023/10/12 13:18:14;;;;;;;15.33;3.30;;;;;;;;;;4999415;28;46514;-84
2023/10/12 13:20:46;;;;;;;6.70;3.03;;;25.10;1.00;;;;;;5001154;28;46385;-86
2023/10/12 13:23:20;;;;;;;10.67;3.70;;;25.00;1.00;;;;;;5001431;28;46957;-86
2023/10/12 13:25:46;;;;;;;12.60;3.40;;;;;;;;;;5002701;28;48578;-83
2023/10/12 13:28:12;;;;;;;13.87;3.97;;;25.00;1.00;;;;;;5006616;28;46479;-84
2023/10/12 13:30:37;;;;;;;15.27;3.80;;;25.00;1.00;;;;;;5002049;28;46812;-89
2023/10/12 13:33:05;;;;;;;10.17;3.40;;;24.90;1.00;;;;;;5005549;28;46495;-86
2023/10/12 13:38:09;;;;;;;9.03;3.43;;;;;;;;;;4998162;28;46361;-83
2023/10/12 13:40:46;;;;;;;18.30;3.70;;;24.90;1.00;;;;;;4999119;28;46515;-85
2023/10/12 13:43:15;;;;;;;7.13;3.20;;;25.00;1.00;;;;;;5001843;28;46481;-84
2023/10/12 13:45:51;;;;;;;13.53;3.57;;;24.70;1.00;;;;;;4999880;28;47352;-81
2023/10/12 13:48:20;;;;;;;21.53;3.87;;;24.60;1.00;;;;;;4991223;28;46746;-82
2023/10/12 13:50:59;;;;;;;12.90;3.23;;;24.60;1.00;;;;;;4998687;28;46468;-81
2023/10/12 13:53:28;;;;;;;10.60;4.10;;;24.60;1.00;;;;;;4996872;28;46592;-82
2023/10/12 13:55:54;;;;;;;10.67;4.07;;;24.50;1.00;;;;;;4996185;28;48287;-83
2023/10/12 13:58:32;;;;;;;9.80;3.27;;;24.50;1.00;;;;;;4999911;28;46507;-83
2023/10/12 14:01:02;;;;;;;10.50;3.70;;;24.40;1.00;;;;;;4998924;28;46532;-82
2023/10/12 14:03:28;;;;;;;14.50;3.80;;;24.40;1.00;;;;;;4998201;28;46980;-83
2023/10/12 14:05:57;;;;;;;15.10;3.80;;;24.10;1.00;;;;;;4999388;28;46833;-83
2023/10/12 14:08:24;;;;;;;12.10;3.40;;;24.00;1.00;;;;;;4998510;28;46457;-83
2023/10/12 14:10:53;;;;;;;6.73;3.13;;;23.90;1.00;;;;;;4999564;28;46583;-81
2023/10/12 14:13:19;;;;;;;20.60;3.40;;;23.80;1.00;;;;;;4997328;28;47166;-83
2023/10/12 14:15:44;;;;;;;9.83;3.40;;;23.50;1.00;;;;;;4997824;28;46406;-84
2023/10/12 14:18:16;;;;;;;9.97;3.77;;;23.50;1.00;;;;;;4998371;28;46519;-83
2023/10/12 14:20:46;;;;;;;10.17;3.77;;;23.40;1.00;;;;;;4996644;28;46769;-82
2023/10/12 14:23:13;;;;;;;7.43;3.83;;;23.20;1.00;;;;;;5001196;28;46474;-82
2023/10/12 14:25:43;;;;;;;9.93;3.60;;;23.20;1.00;;;;;;4990572;28;48219;-82
2023/10/12 14:28:10;;;;;;;11.37;3.70;;;23.10;1.00;;;;;;4999058;28;46470;-83
2023/10/12 14:30:36;;;;;;;9.13;3.60;;;23.10;1.00;;;;;;4997828;28;46630;-80
2023/10/12 14:33:03;;;;;;;8.37;3.93;;;23.10;1.00;;;;;;5000820;28;46958;-83
2023/10/12 14:35:30;;;;;;;23.00;5.40;;;23.20;1.00;;;;;;4999227;28;47007;-84
2023/10/12 14:37:56;;;;;;;12.87;4.67;;;23.20;1.00;;;;;;4987371;28;46586;-80
2023/10/12 14:40:29;;;;;;;21.70;4.33;;;23.30;1.00;;;;;;4997553;28;46343;-83
2023/10/12 14:42:56;;;;;;;10.50;4.10;;;23.30;1.00;;;;;;4999137;28;46540;-82
2023/10/12 14:45:24;;;;;;;10.00;3.73;;;23.30;1.00;;;;;;5000773;28;47130;-78
2023/10/12 14:47:50;;;;;;;14.10;3.13;;;23.20;1.00;;;;;;5000470;28;46811;-85
2023/10/12 14:50:17;;;;;;;13.57;4.27;;;23.20;1.00;;;;;;5002021;28;45995;-82
2023/10/12 14:52:43;;;;;;;8.30;3.47;;;23.20;1.00;;;;;;4997369;28;46917;-81
2023/10/12 14:55:13;;;;;;;16.70;4.00;;;23.20;1.00;;;;;;4997227;28;47934;-83
2023/10/12 14:57:39;;;;;;;9.93;4.03;;;23.20;1.00;;;;;;4999006;28;45953;-82
2023/10/12 15:00:22;;;;;;;17.93;3.57;;;23.30;1.00;;;;;;5000310;28;46510;-82
2023/10/12 15:02:51;;;;;;;14.37;3.93;;;23.20;1.00;;;;;;5000830;28;46487;-82
2023/10/12 15:05:22;;;;;;;12.27;3.97;;;;;;;;;;5003439;28;46799;-83
2023/10/12 15:07:52;;;;;;;14.40;4.37;;;23.20;1.00;;;;;;4999068;28;46924;-81
2023/10/12 15:10:18;;;;;;;22.53;3.73;;;23.10;1.00;;;;;;4999067;28;46551;-83
2023/10/12 15:12:48;;;;;;;10.50;3.60;;;23.10;1.00;;;;;;4994599;28;46489;-82
2023/10/12 15:15:18;;;;;;;15.00;4.00;;;23.10;1.00;;;;;;4996985;28;47194;-82
2023/10/12 15:17:45;;;;;;;9.97;4.03;;;;;;;;;;4998977;28;46455;-80
2023/10/12 15:20:15;;;;;;;8.10;4.00;;;22.80;1.00;;;;;;5001029;28;46434;-83
2023/10/12 15:22:44;;;;;;;13.27;4.47;;;22.70;1.00;;;;;;4995268;28;46434;-82
2023/10/12 15:25:10;;;;;;;10.10;3.87;;;;;;;;;;4997466;28;46335;-83